Time;durP1;ratioP1;P1;durP2;ratioP2;P2;SDS_P1;SDS_P2;PMS_P1;PMS_P2;Temp;Humidity;BMP_temperature;BMP_pressure;BME280_temperature;BME280_humidity;BME280_pressure;Samples;Min_cycle;Max_cycle;Signal;HPM_P1;HPM_P2
2023/10/17 00:02:12;;;;;;;3.30;2.58;;;2.10;99.90;;;;;;5106272;28;20054;-79
2023/10/17 00:04:41;;;;;;;3.08;2.78;;;2.10;99.90;;;;;;5097850;28;20031;-78
2023/10/17 00:07:08;;;;;;;3.90;2.47;;;2.20;99.90;;;;;;5097896;28;20017;-78
2023/10/17 00:09:37;;;;;;;3.78;2.75;;;2.00;99.90;;;;;;5096103;28;20031;-79
2023/10/17 00:15:16;;;;;;;3.42;2.42;;;2.00;99.90;;;;;;5113199;28;20054;-79
2023/10/17 00:17:30;;;;;;;3.03;2.25;;;2.10;99.90;;;;;;5098338;28;20028;-77
2023/10/17 00:19:56;;;;;;;2.20;1.98;;;2.10;99.90;;;;;;5093531;28;20039;-78
2023/10/17 00:22:24;;;;;;;7.18;3.15;;;2.10;99.90;;;;;;5095506;28;20050;-78
2023/10/17 00:25:01;;;;;;;3.80;2.13;;;1.90;99.90;;;;;;5094979;28;20070;-78
2023/10/17 00:27:26;;;;;;;3.88;2.88;;;1.90;99.90;;;;;;5096341;28;20032;-80
2023/10/17 00:29:52;;;;;;;4.20;1.95;;;1.90;99.90;;;;;;5096849;28;20020;-79
2023/10/17 00:32:18;;;;;;;5.85;2.90;;;1.90;99.90;;;;;;5099544;28;20024;-80
2023/10/17 00:34:46;;;;;;;3.28;2.55;;;1.90;99.90;;;;;;5096170;28;20055;-78
2023/10/17 00:37:11;;;;;;;5.18;2.63;;;1.90;99.90;;;;;;5098432;28;20021;-78
2023/10/17 00:39:38;;;;;;;4.63;2.72;;;1.90;99.90;;;;;;5098749;28;20119;-78
2023/10/17 00:44:39;;;;;;;2.63;2.13;;;1.90;99.90;;;;;;5094062;28;20024;-78
2023/10/17 00:47:08;;;;;;;2.95;2.20;;;1.80;99.90;;;;;;5092275;28;20472;-78
2023/10/17 00:49:45;;;;;;;5.35;2.42;;;1.80;99.90;;;;;;5092573;28;20123;-78
2023/10/17 00:52:20;;;;;;;5.05;3.55;;;1.70;99.90;;;;;;5093548;28;20062;-78
2023/10/17 00:54:47;;;;;;;4.03;2.83;;;1.80;99.90;;;;;;5097818;28;20070;-78
2023/10/17 00:57:17;;;;;;;6.43;2.25;;;1.80;99.90;;;;;;5096188;28;20024;-78
2023/10/17 00:59:49;;;;;;;4.10;2.28;;;1.80;99.90;;;;;;5096261;28;20521;-78
2023/10/17 01:02:15;;;;;;;4.93;3.15;;;1.80;99.90;;;;;;5096098;28;20020;-78
2023/10/17 01:04:44;;;;;;;3.17;2.28;;;1.80;99.90;;;;;;5096056;28;20028;-78
2023/10/17 01:07:11;;;;;;;2.13;1.92;;;1.70;99.90;;;;;;5097107;28;20069;-78
2023/10/17 01:09:38;;;;;;;4.03;2.92;;;1.80;99.90;;;;;;5097073;28;20035;-79
2023/10/17 01:12:10;;;;;;;5.07;2.55;;;1.80;99.90;;;;;;5096129;28;20059;-78
2023/10/17 01:14:40;;;;;;;5.85;3.15;;;1.70;99.90;;;;;;5096341;28;20039;-78
2023/10/17 01:17:12;;;;;;;4.05;3.10;;;1.80;99.90;;;;;;5095788;28;20065;-78
2023/10/17 01:19:38;;;;;;;3.55;3.25;;;2.00;99.90;;;;;;5095767;28;20036;-78
2023/10/17 01:22:04;;;;;;;5.50;2.53;;;1.80;99.90;;;;;;5095736;28;20621;-78
2023/10/17 01:24:29;;;;;;;4.53;3.65;;;1.80;99.90;;;;;;5095373;28;20048;-78
2023/10/17 01:26:55;;;;;;;3.72;3.03;;;1.80;99.90;;;;;;5095500;28;20023;-78
2023/10/17 01:29:21;;;;;;;3.38;2.38;;;1.70;99.90;;;;;;5096977;28;20039;-78
2023/10/17 01:31:49;;;;;;;2.25;1.95;;;1.80;99.90;;;;;;5095599;28;20468;-78
2023/10/17 01:34:14;;;;;;;6.68;2.58;;;1.70;99.90;;;;;;5095577;28;20115;-78
2023/10/17 01:36:42;;;;;;;7.43;3.42;;;1.70;99.90;;;;;;5095471;28;20150;-78
2023/10/17 01:39:08;;;;;;;4.57;2.75;;;1.70;99.90;;;;;;5096701;28;20043;-79
2023/10/17 01:41:35;;;;;;;4.03;2.72;;;1.70;99.90;;;;;;5096894;28;20099;-78
2023/10/17 01:44:01;;;;;;;4.25;3.13;;;1.70;99.90;;;;;;5096634;28;20020;-78
2023/10/17 01:46:30;;;;;;;4.90;3.60;;;1.60;99.90;;;;;;5095163;28;20027;-79
2023/10/17 01:48:59;;;;;;;3.65;2.50;;;1.60;99.90;;;;;;5095252;28;20085;-78
2023/10/17 01:51:26;;;;;;;4.40;2.60;;;1.60;99.90;;;;;;5096633;28;20020;-79
2023/10/17 01:53:53;;;;;;;5.43;3.55;;;1.70;99.90;;;;;;5095392;28;20028;-78
2023/10/17 01:56:29;;;;;;;3.58;2.92;;;1.80;99.90;;;;;;5096631;28;20026;-78
2023/10/17 01:58:55;;;;;;;3.53;2.15;;;1.80;99.90;;;;;;5096389;28;20542;-78
2023/10/17 02:01:25;;;;;;;3.38;2.97;;;1.70;99.90;;;;;;5094961;28;20354;-78
2023/10/17 02:03:52;;;;;;;5.53;2.92;;;1.70;99.90;;;;;;5095199;28;20028;-79
2023/10/17 02:06:19;;;;;;;3.25;2.72;;;1.80;99.90;;;;;;5098152;28;20044;-79
2023/10/17 02:08:45;;;;;;;4.07;2.38;;;1.80;99.90;;;;;;5096056;28;20027;-80
2023/10/17 02:11:56;;;;;;;8.13;3.05;;;1.80;99.90;;;;;;5096795;28;20397;-79
2023/10/17 02:13:59;;;;;;;4.18;3.83;;;1.60;99.90;;;;;;5089843;28;20032;-79
2023/10/17 02:16:28;;;;;;;4.78;3.65;;;1.80;99.90;;;;;;5095948;28;20041;-80
2023/10/17 02:18:54;;;;;;;5.63;3.17;;;1.80;99.90;;;;;;5095311;28;20116;-77
2023/10/17 02:21:21;;;;;;;6.75;3.85;;;1.90;99.90;;;;;;5094644;28;20028;-78
2023/10/17 02:23:50;;;;;;;7.85;4.07;;;1.90;99.90;;;;;;5092670;28;20384;-78
2023/10/17 02:26:21;;;;;;;3.80;2.80;;;1.70;99.90;;;;;;5058229;28;20380;-78
2023/10/17 02:28:53;;;;;;;4.32;3.33;;;1.70;99.90;;;;;;5075732;28;20492;-78
2023/10/17 02:31:29;;;;;;;15.85;3.33;;;1.70;99.90;;;;;;5057527;28;20472;-78
2023/10/17 02:33:58;;;;;;;4.35;3.08;;;1.70;99.90;;;;;;5057539;28;20036;-78
2023/10/17 02:36:26;;;;;;;7.82;3.72;;;1.70;99.90;;;;;;5057895;28;20065;-78
2023/10/17 02:38:52;;;;;;;8.85;4.00;;;1.60;99.90;;;;;;5075351;28;20037;-79
2023/10/17 02:41:18;;;;;;;5.53;2.90;;;1.60;99.90;;;;;;5074912;28;20078;-78
2023/10/17 02:43:54;;;;;;;5.07;3.28;;;1.70;99.90;;;;;;5075326;28;20032;-78
2023/10/17 02:46:24;;;;;;;6.18;3.78;;;1.70;99.90;;;;;;5057308;28;20056;-78
2023/10/17 02:48:51;;;;;;;6.38;3.75;;;1.60;99.90;;;;;;5075510;28;20020;-78
2023/10/17 02:53:53;;;;;;;4.75;3.90;;;1.60;99.90;;;;;;5075582;28;20499;-78
2023/10/17 02:56:19;;;;;;;5.93;3.92;;;1.50;99.90;;;;;;5057200;28;20021;-78
2023/10/17 02:59:12;;;;;;;6.93;3.95;;;1.50;99.90;;;;;;5056944;28;20059;-78
2023/10/17 03:01:42;;;;;;;4.38;2.95;;;1.40;99.90;;;;;;5057333;28;20027;-78
2023/10/17 03:04:12;;;;;;;6.68;3.67;;;1.30;99.90;;;;;;5075133;28;20401;-78
2023/10/17 03:06:40;;;;;;;6.57;3.00;;;1.50;99.90;;;;;;5057185;28;20032;-78
2023/10/17 03:14:39;;;;;;;6.32;3.63;;;1.20;99.90;;;;;;5075084;28;20468;-78
2023/10/17 03:17:05;;;;;;;4.35;3.50;;;1.20;99.90;;;;;;5056182;28;20028;-78
2023/10/17 03:19:32;;;;;;;5.53;3.88;;;1.10;99.90;;;;;;5074451;28;20125;-78
2023/10/17 03:22:16;;;;;;;6.18;4.45;;;1.10;99.90;;;;;;5074651;28;20075;-78
2023/10/17 03:25:02;;;;;;;5.30;3.45;;;1.20;99.90;;;;;;5071925;28;20389;-79
2023/10/17 03:27:37;;;;;;;3.60;2.85;;;1.20;99.90;;;;;;5093660;28;20020;-78
2023/10/17 03:30:11;;;;;;;5.05;4.30;;;1.10;99.90;;;;;;5093632;28;20119;-78
2023/10/17 03:32:53;;;;;;;5.80;3.45;;;1.20;99.90;;;;;;5093836;28;20016;-79
2023/10/17 03:35:21;;;;;;;6.70;4.53;;;1.20;99.90;;;;;;5094953;28;20024;-78
2023/10/17 03:37:48;;;;;;;9.90;4.13;;;1.00;99.90;;;;;;5096011;28;20221;-79
2023/10/17 03:45:13;;;;;;;6.45;3.67;;;1.00;99.90;;;;;;5095728;28;20051;-78
2023/10/17 03:47:39;;;;;;;9.45;4.47;;;1.00;99.90;;;;;;5093625;28;20020;-78
2023/10/17 03:50:08;;;;;;;9.13;3.67;;;1.00;99.90;;;;;;5094271;28;20027;-80
2023/10/17 03:52:38;;;;;;;6.18;3.90;;;1.00;99.90;;;;;;5094649;28;20036;-80
2023/10/17 03:55:10;;;;;;;7.93;3.45;;;0.90;99.90;;;;;;5094627;28;20054;-79
2023/10/17 03:57:45;;;;;;;6.07;3.65;;;0.90;99.90;;;;;;5093356;28;20035;-80
2023/10/17 04:00:25;;;;;;;6.93;4.45;;;0.90;99.90;;;;;;5094331;28;20024;-79
2023/10/17 04:02:51;;;;;;;5.20;4.15;;;1.00;99.90;;;;;;5095636;28;20023;-78
2023/10/17 04:05:17;;;;;;;5.43;3.10;;;1.00;99.90;;;;;;5094833;28;20414;-78
2023/10/17 04:07:51;;;;;;;7.65;3.97;;;0.90;99.90;;;;;;5094573;28;20023;-79
2023/10/17 04:10:20;;;;;;;7.60;3.80;;;0.90;99.90;;;;;;5094064;28;20380;-79
2023/10/17 04:12:49;;;;;;;6.47;4.43;;;0.90;99.90;;;;;;5094031;28;20046;-79
2023/10/17 04:15:18;;;;;;;6.93;3.90;;;0.80;99.90;;;;;;5094302;28;20103;-79
2023/10/17 04:17:48;;;;;;;5.53;4.30;;;1.50;99.90;;;;;;5094131;28;20066;-79
2023/10/17 04:20:16;;;;;;;;;;;1.10;99.90;;;;;;5093422;28;20506;-78
2023/10/17 04:22:46;;;;;;;10.38;4.85;;;1.30;99.90;;;;;;5094156;28;19959;-78
2023/10/17 04:27:59;;;;;;;23.67;4.80;;;0.90;99.90;;;;;;5073674;28;20059;-79
2023/10/17 04:30:35;;;;;;;9.93;4.87;;;0.90;99.90;;;;;;5055902;28;20033;-78
2023/10/17 04:33:12;;;;;;;9.65;4.15;;;0.90;99.90;;;;;;5055682;28;20028;-79
2023/10/17 04:35:47;;;;;;;6.70;5.60;;;0.90;99.90;;;;;;5073697;28;20469;-79
2023/10/17 04:38:19;;;;;;;8.43;4.40;;;0.90;99.90;;;;;;5073844;28;20021;-79
2023/10/17 04:41:11;;;;;;;7.97;4.65;;;0.90;99.90;;;;;;5055785;28;20020;-79
2023/10/17 04:43:54;;;;;;;5.82;4.40;;;0.90;99.90;;;;;;5073686;28;20024;-79
2023/10/17 04:46:25;;;;;;;5.40;3.58;;;0.80;99.90;;;;;;5073410;28;20099;-79
2023/10/17 04:48:52;;;;;;;9.25;4.13;;;0.70;99.90;;;;;;5055501;28;20023;-79
2023/10/17 04:53:48;;;;;;;6.65;4.68;;;0.70;99.90;;;;;;5074106;28;20028;-79
2023/10/17 04:56:40;;;;;;;8.25;5.47;;;1.00;99.90;;;;;;5056041;28;20501;-79
2023/10/17 04:59:09;;;;;;;6.38;4.82;;;0.80;99.90;;;;;;5073601;28;20094;-79
2023/10/17 05:01:35;;;;;;;7.35;4.97;;;0.80;99.90;;;;;;5056051;28;20086;-79
2023/10/17 05:04:13;;;;;;;9.55;4.60;;;0.80;99.90;;;;;;5074098;28;20055;-78
2023/10/17 05:07:07;;;;;;;10.02;5.78;;;0.80;99.90;;;;;;5056279;28;20016;-78
2023/10/17 06:16:49;;;;;;;8.35;3.88;;;0.80;99.90;;;;;;5072954;28;20032;-78
2023/10/17 06:17:49;;;;;;;13.35;6.72;;;1.20;99.90;;;;;;5076345;28;20031;-78
2023/10/17 06:20:44;;;;;;;11.80;7.38;;;1.30;99.90;;;;;;5076038;28;20115;-78
2023/10/17 06:24:06;;;;;;;13.95;7.40;;;1.40;99.90;;;;;;5075810;28;20028;-78
2023/10/17 06:30:05;;;;;;;16.17;7.57;;;1.50;99.90;;;;;;5076050;28;20043;-78
2023/10/17 06:31:56;;;;;;;13.57;7.43;;;1.80;99.90;;;;;;5075588;28;20036;-78
2023/10/17 06:34:23;;;;;;;16.52;8.27;;;1.60;99.90;;;;;;5075915;28;20016;-78
2023/10/17 06:36:59;;;;;;;16.38;9.18;;;1.70;99.90;;;;;;5075721;28;20473;-80
2023/10/17 06:39:36;;;;;;;11.45;7.13;;;1.80;99.90;;;;;;5058096;28;20052;-78
2023/10/17 06:42:49;;;;;;;17.38;8.85;;;1.90;99.90;;;;;;5057678;28;20029;-78
2023/10/17 06:45:01;;;;;;;37.55;11.98;;;2.10;99.90;;;;;;5057611;28;20043;-78
2023/10/17 06:47:31;;;;;;;16.52;8.32;;;2.20;99.90;;;;;;5075235;28;20043;-79
2023/10/17 06:50:16;;;;;;;18.58;10.52;;;2.40;99.90;;;;;;5057000;28;20369;-79
2023/10/17 06:55:22;;;;;;;22.25;12.55;;;2.70;99.90;;;;;;5075394;28;20098;-79
2023/10/17 06:57:52;;;;;;;20.00;11.15;;;2.90;99.90;;;;;;5074934;28;20021;-79
2023/10/17 07:02:49;;;;;;;20.35;11.15;;;3.20;99.90;;;;;;5075374;28;19904;-78
2023/10/17 07:05:21;;;;;;;24.88;11.73;;;3.40;99.90;;;;;;5057537;28;20024;-79
2023/10/17 07:07:52;;;;;;;24.27;12.65;;;3.60;99.90;;;;;;5057659;28;20507;-79
2023/10/17 07:10:38;;;;;;;25.42;12.32;;;3.80;99.90;;;;;;5052964;28;20017;-78
2023/10/17 07:13:41;;;;;;;29.33;13.93;;;4.10;99.90;;;;;;5076349;28;20388;-79
2023/10/17 07:16:16;;;;;;;21.17;12.80;;;4.30;99.90;;;;;;5058668;28;20025;-77
2023/10/17 07:18:47;;;;;;;22.45;13.07;;;4.50;99.90;;;;;;5075205;28;20469;-78
2023/10/17 07:23:43;;;;;;;24.75;13.98;;;4.90;99.90;;;;;;5075052;28;20028;-77
2023/10/17 07:26:24;;;;;;;22.70;12.35;;;5.00;99.90;;;;;;5057089;28;20033;-77
2023/10/17 07:28:50;;;;;;;23.88;12.30;;;5.20;99.90;;;;;;5075160;28;20402;-77
2023/10/17 07:31:16;;;;;;;20.90;10.18;;;5.40;99.90;;;;;;5057077;28;20021;-77
2023/10/17 07:33:43;;;;;;;24.13;11.73;;;5.60;99.90;;;;;;5056822;28;20024;-77
2023/10/17 07:36:18;;;;;;;22.95;11.25;;;5.70;99.90;;;;;;5074900;28;20024;-77
2023/10/17 07:38:45;;;;;;;26.60;13.02;;;5.70;99.90;;;;;;5074623;28;20036;-77
2023/10/17 07:41:14;;;;;;;23.55;11.30;;;5.80;99.90;;;;;;5074624;28;20377;-78
2023/10/17 07:43:46;;;;;;;18.83;11.07;;;6.00;99.90;;;;;;5074372;28;20389;-77
2023/10/17 07:46:19;;;;;;;22.38;10.73;;;6.10;99.90;;;;;;5056877;28;20027;-78
2023/10/17 07:48:51;;;;;;;20.08;11.20;;;6.20;99.90;;;;;;5074741;28;20024;-80
2023/10/17 07:51:17;;;;;;;28.30;10.60;;;6.20;99.90;;;;;;5056817;28;20052;-79
2023/10/17 07:53:47;;;;;;;23.05;10.15;;;6.40;99.90;;;;;;5074281;28;20054;-78
2023/10/17 07:56:20;;;;;;;20.60;9.80;;;6.50;99.90;;;;;;5074128;28;20480;-79
2023/10/17 07:59:04;;;;;;;20.90;10.63;;;6.70;99.90;;;;;;5056542;28;20137;-78
2023/10/17 08:01:43;;;;;;;18.80;11.45;;;6.80;99.90;;;;;;5055881;28;20122;-78
2023/10/17 08:04:53;;;;;;;15.23;9.63;;;6.90;99.90;;;;;;5055935;28;20170;-78
2023/10/17 08:06:58;;;;;;;;;;;7.00;99.90;;;;;;5061041;28;20036;-79
2023/10/17 08:09:24;;;;;;;14.88;8.77;;;7.20;99.90;;;;;;5055850;28;19915;-78
2023/10/17 08:11:54;;;;;;;20.95;9.68;;;7.40;99.90;;;;;;5073645;28;20030;-79
2023/10/17 08:14:23;;;;;;;20.20;10.18;;;7.40;99.90;;;;;;5074080;28;20028;-78
2023/10/17 08:16:55;;;;;;;15.38;9.07;;;7.50;99.90;;;;;;5055650;28;20067;-78
2023/10/17 08:19:29;;;;;;;17.30;10.10;;;7.60;99.90;;;;;;5055828;28;20068;-77
2023/10/17 08:28:13;;;;;;;22.90;10.77;;;7.80;99.90;;;;;;5073782;28;20518;-78
2023/10/17 08:30:13;;;;;;;15.80;9.05;;;7.80;99.90;;;;;;5060269;28;20086;-78
2023/10/17 08:32:39;;;;;;;13.93;8.40;;;8.00;99.90;;;;;;5074305;28;20021;-78
2023/10/17 08:35:20;;;;;;;16.40;9.27;;;8.10;99.90;;;;;;5055872;28;20035;-79
2023/10/17 08:37:46;;;;;;;13.70;8.45;;;8.20;99.90;;;;;;5056095;28;20028;-78
2023/10/17 08:43:01;;;;;;;14.20;8.77;;;8.40;99.90;;;;;;5074343;28;20513;-78
2023/10/17 08:45:28;;;;;;;16.13;9.18;;;8.50;99.90;;;;;;5073595;28;20074;-78
2023/10/17 08:48:00;;;;;;;13.88;7.53;;;8.60;99.90;;;;;;5073596;28;20465;-78
2023/10/17 08:50:27;;;;;;;11.82;8.95;;;8.70;99.90;;;;;;5055910;28;20029;-79
2023/10/17 08:52:56;;;;;;;19.02;8.88;;;8.80;99.90;;;;;;5055896;28;20032;-78
2023/10/17 08:55:22;;;;;;;15.55;9.43;;;8.90;99.90;;;;;;5073978;28;20020;-78
2023/10/17 08:57:50;;;;;;;14.80;9.05;;;9.00;99.90;;;;;;5078711;28;20029;-78
2023/10/17 09:00:23;;;;;;;13.75;8.57;;;9.00;99.90;;;;;;5060422;28;20040;-78
2023/10/17 09:03:00;;;;;;;14.32;8.75;;;9.10;99.90;;;;;;5079056;28;20023;-79
2023/10/17 09:05:26;;;;;;;15.20;8.25;;;9.20;99.90;;;;;;5057581;28;20028;-78
2023/10/17 09:07:56;;;;;;;13.35;7.75;;;9.30;99.90;;;;;;5056302;28;20020;-78
2023/10/17 09:10:27;;;;;;;12.90;8.57;;;9.50;99.90;;;;;;5073933;28;20027;-78
2023/10/17 09:15:56;;;;;;;13.48;7.60;;;9.80;99.90;;;;;;5078949;28;20107;-78
2023/10/17 09:18:27;;;;;;;14.88;8.93;;;10.00;99.90;;;;;;5078184;28;20073;-79
2023/10/17 09:20:57;;;;;;;12.15;7.03;;;9.90;99.90;;;;;;5062143;28;20510;-78
2023/10/17 09:23:28;;;;;;;16.40;9.07;;;9.80;99.90;;;;;;5077836;28;20031;-79
2023/10/17 09:25:55;;;;;;;11.77;7.75;;;9.90;99.90;;;;;;5077197;28;20476;-79
2023/10/17 09:28:24;;;;;;;14.93;8.00;;;9.90;99.90;;;;;;5061127;28;20059;-79
2023/10/17 09:31:12;;;;;;;14.10;8.50;;;9.90;99.90;;;;;;5063345;28;20362;-79
2023/10/17 09:33:44;;;;;;;14.23;8.48;;;10.10;99.90;;;;;;5065039;28;20044;-80
2023/10/17 09:36:12;;;;;;;16.95;10.13;;;10.20;99.90;;;;;;5079211;28;20033;-78
2023/10/17 09:38:46;;;;;;;15.90;8.65;;;10.20;99.90;;;;;;5061439;28;20017;-78
2023/10/17 09:41:19;;;;;;;12.63;8.18;;;10.40;99.90;;;;;;5058989;28;20024;-79
2023/10/17 09:43:46;;;;;;;18.25;8.45;;;10.30;99.90;;;;;;5078746;28;20037;-79
2023/10/17 09:46:13;;;;;;;13.75;9.88;;;10.30;99.90;;;;;;5063161;28;20029;-79
2023/10/17 09:48:43;;;;;;;15.15;8.68;;;10.40;99.90;;;;;;5078029;28;20032;-80
2023/10/17 09:51:33;;;;;;;19.67;10.10;;;10.40;99.90;;;;;;5060501;28;20027;-77
2023/10/17 09:53:59;;;;;;;17.77;8.35;;;10.20;99.90;;;;;;5059976;28;20020;-78
2023/10/17 09:56:33;;;;;;;12.10;7.68;;;10.20;99.90;;;;;;5076532;28;20388;-78
2023/10/17 09:59:07;;;;;;;16.25;9.25;;;10.20;99.90;;;;;;5076812;28;20334;-80
2023/10/17 10:01:35;;;;;;;16.60;8.85;;;10.40;99.90;;;;;;5077521;28;20509;-76
2023/10/17 10:04:01;;;;;;;15.48;8.95;;;10.50;99.90;;;;;;5077582;28;20098;-78
2023/10/17 10:06:32;;;;;;;12.60;7.25;;;10.80;99.90;;;;;;5077406;28;20055;-79
2023/10/17 10:09:05;;;;;;;19.33;10.27;;;10.90;99.90;;;;;;5059951;28;20024;-80
2023/10/17 10:12:01;;;;;;;16.35;7.47;;;10.90;99.90;;;;;;5078342;28;20028;-80
2023/10/17 10:14:27;;;;;;;12.23;9.13;;;11.10;99.90;;;;;;5058875;28;20024;-80
2023/10/17 10:16:57;;;;;;;13.30;8.05;;;11.30;99.90;;;;;;5060884;28;20051;-80
2023/10/17 10:19:27;;;;;;;16.20;9.23;;;11.30;99.90;;;;;;5060833;28;20036;-81
2023/10/17 10:21:58;;;;;;;12.30;7.55;;;11.40;99.90;;;;;;5079094;28;20021;-81
2023/10/17 10:24:32;;;;;;;11.88;6.97;;;11.40;99.90;;;;;;5077040;28;20052;-81
2023/10/17 10:27:27;;;;;;;10.95;7.82;;;11.30;99.90;;;;;;5060719;28;20476;-79
2023/10/17 10:29:55;;;;;;;11.63;7.22;;;11.50;99.90;;;;;;5057955;28;20040;-81
2023/10/17 10:32:37;;;;;;;12.38;8.15;;;11.60;99.90;;;;;;5078579;28;20400;-79
2023/10/17 10:35:07;;;;;;;12.63;7.40;;;11.80;99.90;;;;;;5057159;28;20029;-79
2023/10/17 10:37:54;;;;;;;10.60;7.35;;;12.00;99.90;;;;;;5063952;28;20024;-81
2023/10/17 10:40:30;;;;;;;11.45;7.53;;;12.30;99.90;;;;;;5065014;28;20362;-81
2023/10/17 10:43:01;;;;;;;12.27;7.28;;;12.50;99.90;;;;;;5082299;28;20020;-81
2023/10/17 10:48:17;;;;;;;14.40;7.72;;;12.40;99.90;;;;;;5079212;28;20495;-81
2023/10/17 10:50:55;;;;;;;13.82;8.32;;;12.30;99.90;;;;;;5061589;28;20028;-82
2023/10/17 10:53:24;;;;;;;12.65;8.75;;;12.40;99.90;;;;;;5080421;28;20016;-81
2023/10/17 10:56:22;;;;;;;15.63;10.00;;;12.50;99.90;;;;;;5061695;28;20059;-83
2023/10/17 10:58:55;;;;;;;12.38;7.38;;;12.40;99.90;;;;;;5058760;28;20491;-81
2023/10/17 11:01:22;;;;;;;13.63;7.40;;;12.50;99.90;;;;;;5079561;28;20024;-81
2023/10/17 11:03:49;;;;;;;14.00;7.95;;;12.70;99.90;;;;;;5079445;28;20036;-81
2023/10/17 11:06:19;;;;;;;11.35;7.47;;;12.90;99.90;;;;;;5061345;28;20036;-83
2023/10/17 11:08:46;;;;;;;8.68;5.95;;;13.20;99.90;;;;;;5061615;28;20157;-82
2023/10/17 11:11:16;;;;;;;16.80;8.50;;;13.30;99.90;;;;;;5080965;28;20019;-82
2023/10/17 11:13:57;;;;;;;11.63;7.95;;;13.50;99.90;;;;;;5063371;28;20027;-80
2023/10/17 11:16:26;;;;;;;12.80;7.80;;;13.40;99.90;;;;;;5074623;28;20024;-79
2023/10/17 11:18:53;;;;;;;14.48;7.95;;;13.30;99.90;;;;;;5059522;28;20031;-78
2023/10/17 11:21:20;;;;;;;13.63;7.95;;;13.20;99.90;;;;;;5078795;28;20025;-78
2023/10/17 11:23:55;;;;;;;9.35;7.63;;;13.30;99.90;;;;;;5077606;28;20016;-79
2023/10/17 11:26:25;;;;;;;8.07;6.85;;;13.30;99.90;;;;;;5078421;28;20486;-80
2023/10/17 11:28:52;;;;;;;14.98;8.10;;;13.50;99.90;;;;;;5077449;28;20461;-80
2023/10/17 11:31:22;;;;;;;12.65;6.80;;;13.40;99.90;;;;;;5077457;28;20020;-79
2023/10/17 11:33:59;;;;;;;11.88;7.18;;;13.10;99.90;;;;;;5057917;28;20527;-79
2023/10/17 11:36:35;;;;;;;14.40;7.28;;;13.20;99.90;;;;;;5055696;28;20039;-79
2023/10/17 11:39:04;;;;;;;15.50;7.53;;;13.40;99.90;;;;;;5056355;28;20123;-79
2023/10/17 11:41:39;;;;;;;12.50;6.70;;;13.60;99.90;;;;;;5074607;28;20066;-79
2023/10/17 11:44:06;;;;;;;9.35;6.90;;;13.80;99.90;;;;;;5074648;28;20036;-77
2023/10/17 11:46:33;;;;;;;12.10;6.35;;;14.00;99.90;;;;;;5056699;28;20477;-78
2023/10/17 11:49:20;;;;;;;11.80;7.18;;;14.00;99.90;;;;;;5057276;28;20173;-78
2023/10/17 11:51:51;;;;;;;11.25;6.97;;;13.90;99.90;;;;;;5074259;28;20024;-79
2023/10/17 11:54:18;;;;;;;10.20;6.15;;;14.00;99.90;;;;;;5074866;28;20055;-78
2023/10/17 11:56:45;;;;;;;11.00;6.47;;;14.20;99.90;;;;;;5056966;28;20027;-77
2023/10/17 11:59:10;;;;;;;10.15;6.47;;;14.30;99.80;;;;;;5074417;28;20090;-78
2023/10/17 12:01:37;;;;;;;8.15;6.60;;;14.20;99.60;;;;;;5074609;28;20428;-78
2023/10/17 12:04:06;;;;;;;9.82;6.43;;;14.20;99.40;;;;;;5074827;28;20024;-79
2023/10/17 12:06:33;;;;;;;8.98;6.60;;;14.40;99.80;;;;;;5056374;28;20111;-78
2023/10/17 12:08:59;;;;;;;12.10;7.55;;;14.60;98.80;;;;;;5057111;28;20384;-78
2023/10/17 12:11:25;;;;;;;11.70;6.47;;;14.90;98.10;;;;;;5074786;28;20141;-78
2023/10/17 12:13:54;;;;;;;9.45;5.93;;;15.10;98.10;;;;;;5075077;28;20062;-78
2023/10/17 12:16:23;;;;;;;9.82;6.43;;;15.30;97.50;;;;;;5073501;28;20100;-78
2023/10/17 12:18:51;;;;;;;18.90;10.15;;;15.70;96.80;;;;;;5075085;28;20024;-78
2023/10/17 12:21:17;;;;;;;7.30;6.15;;;16.10;95.70;;;;;;5057154;28;20473;-78
2023/10/17 12:23:43;;;;;;;10.30;6.78;;;16.80;94.10;;;;;;5074323;28;20066;-78
2023/10/17 12:26:14;;;;;;;8.73;5.75;;;17.60;92.50;;;;;;5075173;28;20508;-79
2023/10/17 12:28:43;;;;;;;8.45;5.45;;;18.40;90.70;;;;;;5073942;28;20020;-78
2023/10/17 12:31:16;;;;;;;6.15;5.00;;;19.80;86.80;;;;;;5073791;28;20025;-79
2023/10/17 12:33:43;;;;;;;4.55;3.90;;;20.90;81.70;;;;;;5055048;28;20028;-79
2023/10/17 12:36:09;;;;;;;7.55;5.40;;;21.90;76.20;;;;;;5072903;28;20017;-79
2023/10/17 12:38:34;;;;;;;7.20;5.00;;;21.80;71.40;;;;;;5074103;28;20024;-79
2023/10/17 12:41:09;;;;;;;5.88;4.72;;;21.70;70.00;;;;;;5056437;28;20043;-79
2023/10/17 12:43:35;;;;;;;8.00;5.78;;;21.50;69.90;;;;;;5074333;28;20020;-79
2023/10/17 12:46:04;;;;;;;5.97;5.20;;;20.70;70.30;;;;;;5074531;28;20029;-78
2023/10/17 12:48:30;;;;;;;6.80;5.15;;;20.60;71.00;;;;;;5076455;28;20027;-78
2023/10/17 12:50:55;;;;;;;5.30;4.47;;;21.30;70.00;;;;;;5060194;28;20029;-79
2023/10/17 12:53:21;;;;;;;6.50;4.68;;;21.70;68.30;;;;;;5076926;28;20021;-78
2023/10/17 12:55:47;;;;;;;7.05;4.88;;;22.30;67.10;;;;;;5078413;28;20021;-79
2023/10/17 12:58:18;;;;;;;6.63;4.68;;;22.30;66.30;;;;;;5059493;28;20473;-78
2023/10/17 13:00:47;;;;;;;6.97;4.22;;;22.50;65.10;;;;;;5059104;28;20044;-78
2023/10/17 13:03:13;;;;;;;7.40;5.13;;;23.00;64.20;;;;;;5058809;28;20028;-78
2023/10/17 13:05:39;;;;;;;14.05;9.13;;;23.30;63.70;;;;;;5076591;28;20031;-79
2023/10/17 13:08:04;;;;;;;9.27;4.75;;;23.20;63.20;;;;;;5076498;28;20028;-78
2023/10/17 13:10:31;;;;;;;6.50;4.55;;;23.00;62.70;;;;;;5058172;28;20055;-79
2023/10/17 13:12:58;;;;;;;7.97;4.70;;;23.00;62.20;;;;;;5078138;28;20090;-78
2023/10/17 13:15:24;;;;;;;6.65;4.63;;;21.80;64.30;;;;;;5060438;28;20380;-78
2023/10/17 13:17:54;;;;;;;10.98;4.60;;;21.40;64.80;;;;;;5060940;28;20028;-78
2023/10/17 13:20:31;;;;;;;5.90;4.35;;;21.20;65.80;;;;;;5059641;28;20032;-78
2023/10/17 13:23:03;;;;;;;7.70;4.75;;;20.70;66.80;;;;;;5077381;28;20013;-78
2023/10/17 13:25:36;;;;;;;9.48;4.72;;;20.80;66.40;;;;;;5087283;28;20093;-78
2023/10/17 13:28:05;;;;;;;7.55;4.03;;;20.90;65.50;;;;;;5097531;28;20047;-78
2023/10/17 13:30:33;;;;;;;5.32;3.42;;;21.20;66.00;;;;;;5095284;28;20138;-78
2023/10/17 13:32:59;;;;;;;5.22;4.20;;;21.80;64.90;;;;;;5096697;28;20028;-86
2023/10/17 13:35:24;;;;;;;4.40;3.88;;;22.20;63.90;;;;;;5105014;28;20387;-78
2023/10/17 13:37:54;;;;;;;4.85;3.85;;;21.10;64.70;;;;;;5098377;28;20028;-78
2023/10/17 13:40:22;;;;;;;5.07;4.03;;;20.90;65.90;;;;;;5098178;28;20028;-78
2023/10/17 13:42:55;;;;;;;6.30;3.92;;;21.60;65.60;;;;;;5094827;28;20031;-79
2023/10/17 13:45:21;;;;;;;7.82;4.90;;;22.80;63.20;;;;;;5096160;28;20093;-78
2023/10/17 13:47:52;;;;;;;6.03;4.85;;;22.80;63.70;;;;;;5095746;28;20020;-79
2023/10/17 13:50:19;;;;;;;6.50;3.90;;;22.00;62.80;;;;;;5097439;28;20027;-78
2023/10/17 13:52:54;;;;;;;4.97;3.60;;;21.60;64.50;;;;;;5095066;28;20107;-78
2023/10/17 13:55:27;;;;;;;7.18;4.35;;;22.00;64.90;;;;;;5096396;28;20027;-78
2023/10/17 13:58:01;;;;;;;10.20;4.20;;;22.00;64.00;;;;;;5097482;28;20111;-78
2023/10/17 14:00:31;;;;;;;7.45;5.20;;;20.70;65.10;;;;;;5096363;28;20039;-79
2023/10/17 14:02:57;;;;;;;4.90;3.63;;;20.30;66.20;;;;;;5095558;28;20031;-78
2023/10/17 14:05:23;;;;;;;6.60;4.50;;;20.90;67.00;;;;;;5096233;28;20410;-79
2023/10/17 14:07:50;;;;;;;5.32;3.80;;;21.70;65.40;;;;;;5095623;28;20024;-78
2023/10/17 14:10:15;;;;;;;5.97;3.75;;;22.50;63.90;;;;;;5094784;28;20473;-79
2023/10/17 14:12:41;;;;;;;4.72;3.67;;;22.90;63.00;;;;;;5094378;28;20058;-79
2023/10/17 14:15:08;;;;;;;5.65;3.67;;;22.70;62.20;;;;;;5095607;28;20024;-78
2023/10/17 14:17:44;;;;;;;6.97;3.78;;;21.90;62.80;;;;;;5096039;28;20016;-78
2023/10/17 14:20:16;;;;;;;8.82;4.38;;;21.50;64.60;;;;;;5095830;28;20032;-78
2023/10/17 14:22:56;;;;;;;4.78;3.58;;;20.80;66.30;;;;;;5096590;28;20020;-78
2023/10/17 14:26:00;;;;;;;4.65;3.88;;;20.70;66.80;;;;;;5080821;28;20455;-79
2023/10/17 14:28:08;;;;;;;4.53;3.72;;;21.20;65.70;;;;;;5077116;28;20025;-78
2023/10/17 14:30:39;;;;;;;60.83;36.13;;;20.80;65.60;;;;;;5075885;28;20511;-78
2023/10/17 14:33:05;;;;;;;10.38;6.82;;;20.80;66.60;;;;;;5057077;28;20024;-78
2023/10/17 14:35:34;;;;;;;6.18;4.05;;;21.00;65.90;;;;;;5057064;28;20033;-79
2023/10/17 14:38:00;;;;;;;3.85;3.55;;;21.20;65.00;;;;;;5056968;28;20120;-78
2023/10/17 14:40:29;;;;;;;14.52;4.53;;;21.20;64.50;;;;;;5056675;28;20116;-78
2023/10/17 14:42:55;;;;;;;5.93;3.67;;;21.00;64.10;;;;;;5074907;28;20396;-79
2023/10/17 14:45:24;;;;;;;7.35;3.53;;;20.90;65.10;;;;;;5074836;28;20035;-79
2023/10/17 14:47:55;;;;;;;3.42;3.13;;;21.00;65.00;;;;;;5074861;28;20021;-79
2023/10/17 14:50:20;;;;;;;7.53;2.85;;;21.10;65.00;;;;;;5074903;28;20473;-79
2023/10/17 14:52:46;;;;;;;3.85;3.00;;;21.20;64.80;;;;;;5056572;28;20031;-79
2023/10/17 14:55:23;;;;;;;9.07;3.05;;;21.20;64.60;;;;;;5074569;28;20032;-78
2023/10/17 14:57:49;;;;;;;3.72;3.10;;;21.30;64.80;;;;;;5056571;28;20024;-79
2023/10/17 15:00:15;;;;;;;4.68;2.65;;;21.00;64.90;;;;;;5074363;28;20386;-78
2023/10/17 15:02:44;;;;;;;3.78;2.88;;;20.50;65.50;;;;;;5074433;28;20021;-78